createdAt,value
2022-07-26T00:00:12.625Z,69.00
2022-07-26T00:02:47.435Z,69.00
2022-07-26T00:05:16.138Z,69.10
2022-07-26T00:07:43.323Z,69.10
2022-07-26T00:10:10.759Z,69.00
2022-07-26T00:12:37.924Z,69.10
2022-07-26T00:15:06.905Z,69.30
2022-07-26T00:17:33.675Z,69.20
2022-07-26T00:20:00.420Z,69.40
2022-07-26T00:22:36.251Z,69.20
2022-07-26T00:25:08.420Z,69.20
2022-07-26T00:27:38.985Z,69.30
2022-07-26T00:30:07.366Z,69.20
2022-07-26T00:32:34.106Z,69.10
2022-07-26T00:35:00.816Z,69.00
2022-07-26T00:37:27.657Z,68.90
2022-07-26T00:39:54.333Z,68.90
2022-07-26T00:42:21.017Z,69.00
2022-07-26T00:44:48.546Z,69.00
2022-07-26T00:47:15.762Z,69.20
2022-07-26T00:49:43.622Z,69.30
2022-07-26T00:52:11.106Z,69.30
2022-07-26T00:54:39.893Z,69.10
2022-07-26T00:57:07.340Z,69.30
2022-07-26T00:59:34.054Z,69.20
2022-07-26T01:02:01.384Z,69.20
2022-07-26T01:04:28.544Z,69.50
2022-07-26T01:06:55.521Z,69.50
2022-07-26T01:09:22.931Z,69.50
2022-07-26T01:11:50.626Z,69.50
2022-07-26T01:14:24.318Z,69.40
2022-07-26T01:16:52.220Z,69.40
2022-07-26T01:19:19.659Z,69.40
2022-07-26T01:21:46.367Z,69.50
2022-07-26T01:24:13.143Z,69.40
2022-07-26T01:26:40.092Z,69.40
2022-07-26T01:29:06.930Z,69.30
2022-07-26T01:31:33.868Z,69.40
2022-07-26T01:34:00.673Z,69.60
2022-07-26T01:36:27.357Z,69.80
2022-07-26T01:38:54.013Z,69.60
2022-07-26T01:41:31.614Z,69.60
2022-07-26T01:44:05.160Z,69.70
2022-07-26T01:46:32.083Z,69.60
2022-07-26T01:48:59.093Z,69.70
2022-07-26T01:51:25.809Z,69.80
2022-07-26T01:53:52.561Z,69.70
2022-07-26T01:56:19.242Z,69.70
2022-07-26T01:58:46.009Z,69.70
2022-07-26T02:01:12.721Z,69.60
2022-07-26T02:03:39.510Z,69.50
2022-07-26T02:06:06.689Z,69.40
2022-07-26T02:08:33.755Z,69.40
2022-07-26T02:11:00.655Z,69.40
2022-07-26T02:13:35.956Z,69.10
2022-07-26T02:16:04.526Z,68.80
2022-07-26T02:18:31.943Z,68.70
2022-07-26T02:21:00.960Z,68.60
2022-07-26T02:23:28.389Z,68.30
2022-07-26T02:25:55.690Z,68.20
2022-07-26T02:28:22.822Z,68.10
2022-07-26T02:30:50.102Z,68.00
2022-07-26T02:33:18.640Z,67.90
2022-07-26T02:35:45.808Z,67.70
2022-07-26T02:38:14.603Z,67.70
2022-07-26T02:40:42.287Z,67.60
2022-07-26T02:43:10.188Z,67.50
2022-07-26T02:45:37.543Z,67.40
2022-07-26T02:48:04.890Z,67.30
2022-07-26T02:50:32.329Z,67.30
2022-07-26T02:52:59.072Z,67.20
2022-07-26T02:55:26.791Z,67.20
2022-07-26T02:57:54.168Z,67.20
2022-07-26T03:00:25.620Z,67.20
2022-07-26T03:02:52.793Z,67.20
2022-07-26T03:05:20.582Z,67.20
2022-07-26T03:07:47.790Z,67.20
2022-07-26T03:10:14.775Z,67.20
2022-07-26T03:12:41.698Z,67.20
2022-07-26T03:15:09.095Z,67.30
2022-07-26T03:17:35.946Z,67.40
2022-07-26T03:20:03.078Z,67.60
2022-07-26T03:22:29.784Z,67.60
2022-07-26T03:24:56.490Z,67.70
2022-07-26T03:27:23.224Z,67.80
2022-07-26T03:29:49.987Z,68.50
2022-07-26T03:32:16.650Z,68.00
2022-07-26T03:34:43.407Z,68.10
2022-07-26T03:37:10.097Z,68.20
2022-07-26T03:39:38.074Z,68.30
2022-07-26T03:42:05.427Z,68.30
2022-07-26T03:44:32.098Z,68.40
2022-07-26T03:46:59.133Z,68.50
2022-07-26T03:49:26.437Z,68.60
2022-07-26T03:51:53.251Z,68.70
2022-07-26T03:54:19.907Z,68.80
2022-07-26T03:56:46.593Z,68.80
2022-07-26T03:59:13.314Z,68.70
2022-07-26T04:01:41.967Z,68.70
2022-07-26T04:04:10.427Z,68.70
2022-07-26T04:06:39.574Z,68.80
2022-07-26T04:09:07.319Z,69.30
2022-07-26T04:11:35.310Z,69.00
2022-07-26T04:14:02.689Z,69.10
2022-07-26T04:16:29.423Z,69.30
2022-07-26T04:18:56.617Z,69.40
2022-07-26T04:21:23.662Z,69.50
2022-07-26T04:23:51.690Z,69.50
2022-07-26T04:26:21.162Z,69.50
2022-07-26T04:28:48.483Z,69.80
2022-07-26T04:31:15.543Z,69.80
2022-07-26T04:33:42.662Z,69.90
2022-07-26T04:36:09.511Z,69.90
2022-07-26T04:38:36.256Z,70.00
2022-07-26T04:41:03.321Z,70.10
2022-07-26T04:43:30.105Z,70.10
2022-07-26T04:46:00.548Z,70.30
2022-07-26T04:48:27.467Z,70.30
2022-07-26T04:50:55.263Z,70.40
2022-07-26T04:53:22.013Z,70.40
2022-07-26T04:55:48.771Z,70.50
2022-07-26T04:58:15.498Z,70.40
2022-07-26T05:03:32.709Z,70.40
2022-07-26T05:05:59.377Z,70.50
2022-07-26T05:08:26.050Z,70.40
2022-07-26T05:10:55.481Z,70.40
2022-07-26T05:13:23.130Z,70.70
2022-07-26T05:15:57.057Z,70.70
2022-07-26T05:18:23.713Z,70.60
2022-07-26T05:20:51.495Z,70.70
2022-07-26T05:23:19.877Z,70.70
2022-07-26T05:25:46.832Z,70.70
2022-07-26T05:28:13.502Z,70.60
2022-07-26T05:30:40.223Z,70.60
2022-07-26T05:33:06.913Z,70.50
2022-07-26T05:35:33.610Z,70.60
2022-07-26T05:38:00.281Z,70.50
2022-07-26T05:40:26.986Z,70.90
2022-07-26T05:42:53.723Z,71.00
2022-07-26T05:45:20.455Z,71.20
2022-07-26T05:47:53.027Z,71.20
2022-07-26T05:50:20.460Z,71.20
2022-07-26T05:52:47.273Z,71.40
2022-07-26T05:55:14.626Z,71.50
2022-07-26T05:57:47.417Z,71.60
2022-07-26T06:00:16.578Z,71.80
2022-07-26T06:02:43.348Z,72.60
2022-07-26T06:05:10.333Z,72.90
2022-07-26T06:07:37.174Z,73.10
2022-07-26T06:10:04.976Z,73.10
2022-07-26T06:12:31.662Z,73.50
2022-07-26T06:14:58.359Z,73.40
2022-07-26T06:17:29.979Z,73.60
2022-07-26T06:19:57.842Z,73.60
2022-07-26T06:22:24.695Z,73.80
2022-07-26T06:24:51.377Z,74.00
2022-07-26T06:27:18.078Z,74.20
2022-07-26T06:29:44.821Z,74.40
2022-07-26T06:32:11.551Z,74.60
2022-07-26T06:34:38.259Z,74.90
2022-07-26T06:37:04.926Z,75.10
2022-07-26T06:39:32.267Z,76.20
2022-07-26T06:41:58.956Z,75.70
2022-07-26T06:44:25.619Z,75.80
2022-07-26T06:46:52.472Z,76.50
2022-07-26T06:49:22.724Z,76.10
2022-07-26T06:51:49.995Z,76.40
2022-07-26T06:54:16.776Z,76.60
2022-07-26T06:56:43.500Z,76.80
2022-07-26T06:59:10.286Z,76.90
2022-07-26T07:01:57.987Z,76.90
2022-07-26T07:04:23.747Z,77.00
2022-07-26T07:06:50.742Z,77.30
2022-07-26T07:09:17.451Z,77.30
2022-07-26T07:11:46.339Z,77.30
2022-07-26T07:14:16.541Z,77.30
2022-07-26T07:16:43.240Z,77.30
2022-07-26T07:19:09.936Z,77.50
2022-07-26T07:21:36.734Z,77.60
2022-07-26T07:24:03.598Z,77.80
2022-07-26T07:26:30.319Z,78.00
2022-07-26T07:28:57.026Z,78.10
2022-07-26T07:31:30.463Z,78.20
2022-07-26T07:34:11.725Z,78.30
2022-07-26T07:36:38.714Z,78.30
2022-07-26T07:39:07.102Z,78.40
2022-07-26T07:41:38.084Z,78.40
2022-07-26T07:44:05.911Z,78.30
2022-07-26T07:46:32.817Z,78.20
2022-07-26T07:48:59.669Z,78.10
2022-07-26T07:51:27.625Z,77.70
2022-07-26T07:53:57.946Z,77.80
2022-07-26T07:56:26.073Z,77.50
2022-07-26T07:58:52.791Z,77.50
2022-07-26T08:01:19.939Z,77.70
2022-07-26T08:03:50.157Z,77.90
2022-07-26T08:06:18.044Z,78.20
2022-07-26T08:08:44.873Z,78.20
2022-07-26T08:11:11.607Z,78.30
2022-07-26T08:13:39.762Z,78.40
2022-07-26T08:16:09.596Z,78.10
2022-07-26T08:18:37.694Z,78.10
2022-07-26T08:21:08.746Z,77.70
2022-07-26T08:23:35.526Z,77.80
2022-07-26T08:26:06.441Z,78.00
2022-07-26T08:28:58.608Z,78.00
2022-07-26T08:31:21.149Z,78.20
2022-07-26T08:33:48.827Z,78.10
2022-07-26T08:36:18.519Z,77.60
2022-07-26T08:38:46.345Z,77.90
2022-07-26T08:41:14.826Z,78.00
2022-07-26T08:43:51.130Z,77.90
2022-07-26T08:46:24.921Z,77.70
2022-07-26T08:48:53.714Z,77.10
2022-07-26T08:51:23.408Z,77.00
2022-07-26T08:53:54.103Z,76.90
2022-07-26T08:56:20.879Z,76.10
2022-07-26T08:58:47.565Z,76.20
2022-07-26T09:01:14.813Z,76.60
2022-07-26T09:03:43.214Z,76.70
2022-07-26T09:06:14.786Z,76.80
2022-07-26T09:08:42.313Z,76.50
2022-07-26T09:11:26.112Z,76.50
2022-07-26T09:14:01.396Z,76.60
2022-07-26T09:16:29.114Z,76.60
2022-07-26T09:19:13.682Z,76.70
2022-07-26T09:21:40.346Z,76.70
2022-07-26T09:24:07.182Z,77.30
2022-07-26T09:26:33.925Z,77.60
2022-07-26T09:29:08.581Z,76.90
2022-07-26T09:31:37.678Z,77.00
2022-07-26T09:34:06.607Z,76.00
2022-07-26T09:36:33.670Z,75.50
2022-07-26T09:39:03.235Z,76.10
2022-07-26T09:41:33.186Z,75.10
2022-07-26T09:44:03.309Z,75.30
2022-07-26T09:46:31.042Z,75.60
2022-07-26T09:49:15.863Z,75.60
2022-07-26T09:51:45.427Z,75.60
2022-07-26T09:54:17.693Z,75.50
2022-07-26T09:56:49.836Z,74.60
2022-07-26T09:59:19.300Z,74.20
2022-07-26T10:01:46.650Z,74.00
2022-07-26T10:04:14.537Z,73.70
2022-07-26T10:06:42.457Z,73.90
2022-07-26T10:09:09.891Z,74.30
2022-07-26T10:11:50.710Z,74.50
2022-07-26T10:14:40.917Z,74.60
2022-07-26T10:17:28.918Z,74.80
2022-07-26T10:20:01.650Z,75.20
2022-07-26T10:22:33.901Z,75.70
2022-07-26T10:25:18.677Z,75.80
2022-07-26T10:27:50.740Z,75.40
2022-07-26T10:30:17.620Z,75.70
2022-07-26T10:33:13.315Z,75.50
2022-07-26T10:35:44.775Z,74.90
2022-07-26T10:38:26.882Z,74.50
2022-07-26T10:41:06.295Z,74.00
2022-07-26T10:43:42.286Z,72.80
2022-07-26T10:46:18.569Z,73.00
2022-07-26T10:49:06.441Z,72.10
2022-07-26T10:51:38.368Z,70.00
2022-07-26T10:54:10.720Z,70.40
2022-07-26T10:56:38.600Z,70.50
2022-07-26T10:59:06.675Z,70.90
2022-07-26T11:01:37.563Z,71.10
2022-07-26T11:04:05.750Z,70.70
2022-07-26T11:06:32.741Z,70.30
2022-07-26T11:09:10.610Z,70.40
2022-07-26T11:11:37.305Z,69.70
2022-07-26T11:14:06.846Z,69.60
2022-07-26T11:16:41.982Z,69.40
2022-07-26T11:19:25.857Z,69.20
2022-07-26T11:21:58.977Z,69.10
2022-07-26T11:24:26.782Z,69.00
2022-07-26T11:26:53.817Z,68.80
2022-07-26T11:29:38.009Z,68.20
2022-07-26T11:32:17.647Z,67.70
2022-07-26T11:34:45.705Z,67.80
2022-07-26T11:37:12.604Z,68.10
2022-07-26T11:39:39.717Z,67.40
2022-07-26T11:42:13.051Z,67.50
2022-07-26T11:44:44.937Z,67.70
2022-07-26T11:47:15.280Z,67.60
2022-07-26T11:50:00.207Z,68.10
2022-07-26T11:52:32.383Z,68.10
2022-07-26T11:54:59.810Z,67.30
2022-07-26T11:57:31.731Z,67.00
2022-07-26T11:59:59.786Z,66.70
2022-07-26T12:02:26.602Z,65.60
2022-07-26T12:05:14.425Z,64.90
2022-07-26T12:08:00.538Z,63.60
2022-07-26T12:10:28.073Z,64.40
2022-07-26T12:13:10.926Z,65.00
2022-07-26T12:15:48.943Z,64.70
2022-07-26T12:18:29.820Z,65.10
2022-07-26T12:21:08.920Z,65.30
2022-07-26T12:23:52.984Z,64.80
2022-07-26T12:26:27.768Z,64.70
2022-07-26T12:28:55.583Z,64.40
2022-07-26T12:31:30.500Z,64.30
2022-07-26T12:33:58.183Z,64.10
2022-07-26T12:36:28.332Z,63.10
2022-07-26T12:39:00.602Z,63.40
2022-07-26T12:41:42.418Z,64.00
2022-07-26T12:44:13.052Z,64.10
2022-07-26T12:46:40.242Z,63.60
2022-07-26T12:49:07.047Z,63.10
2022-07-26T12:51:34.033Z,63.30
2022-07-26T12:54:00.934Z,63.40
2022-07-26T12:56:27.786Z,63.00
2022-07-26T12:59:00.642Z,62.50
2022-07-26T13:01:28.915Z,62.30
2022-07-26T13:03:56.075Z,62.10
2022-07-26T13:06:22.854Z,61.90
2022-07-26T13:08:50.048Z,61.60
2022-07-26T13:11:16.768Z,60.80
2022-07-26T13:13:43.510Z,60.60
2022-07-26T13:16:12.325Z,60.70
2022-07-26T13:18:39.565Z,60.40
2022-07-26T13:21:06.427Z,60.60
2022-07-26T13:23:35.730Z,60.40
2022-07-26T13:26:03.481Z,60.50
2022-07-26T13:28:30.838Z,60.20
2022-07-26T13:30:57.705Z,60.40
2022-07-26T13:33:24.458Z,59.90
2022-07-26T13:35:51.146Z,59.70
2022-07-26T13:38:19.597Z,60.80
2022-07-26T13:40:46.399Z,59.90
2022-07-26T13:43:13.070Z,60.40
2022-07-26T13:45:39.788Z,60.00
2022-07-26T13:48:07.126Z,59.00
2022-07-26T13:50:33.915Z,58.90
2022-07-26T13:53:00.652Z,58.80
2022-07-26T13:55:27.345Z,59.70
2022-07-26T13:57:57.280Z,60.00
2022-07-26T14:00:26.933Z,59.40
2022-07-26T14:02:54.905Z,58.70
2022-07-26T14:05:21.829Z,58.60
2022-07-26T14:07:48.633Z,58.40
2022-07-26T14:10:15.387Z,57.80
2022-07-26T14:12:42.201Z,57.50
2022-07-26T14:15:18.031Z,57.40
2022-07-26T14:17:48.109Z,57.40
2022-07-26T14:20:17.047Z,56.80
2022-07-26T14:22:44.532Z,56.40
2022-07-26T14:25:11.498Z,56.10
2022-07-26T14:27:38.303Z,55.30
2022-07-26T14:30:05.650Z,53.90
2022-07-26T14:32:32.343Z,54.30
2022-07-26T14:34:59.040Z,55.00
2022-07-26T14:37:43.204Z,55.20
2022-07-26T14:40:16.051Z,55.40
2022-07-26T14:42:43.394Z,55.20
2022-07-26T14:45:11.191Z,55.10
2022-07-26T14:47:37.929Z,55.10
2022-07-26T14:50:07.554Z,54.80
2022-07-26T14:52:38.019Z,55.00
2022-07-26T14:55:05.624Z,55.00
2022-07-26T14:57:32.315Z,54.90
2022-07-26T14:59:59.297Z,54.90
2022-07-26T15:02:26.425Z,54.70
2022-07-26T15:04:53.299Z,54.50
2022-07-26T15:07:20.196Z,53.90
2022-07-26T15:09:46.862Z,54.00
2022-07-26T15:12:13.588Z,53.80
2022-07-26T15:14:42.052Z,53.90
2022-07-26T15:17:08.721Z,54.00
2022-07-26T15:19:35.394Z,53.80
2022-07-26T15:22:02.394Z,54.00
2022-07-26T15:24:29.121Z,54.20
2022-07-26T15:26:55.841Z,54.10
2022-07-26T15:29:22.572Z,54.30
2022-07-26T15:31:50.385Z,54.20
2022-07-26T15:34:17.189Z,54.50
2022-07-26T15:36:43.905Z,54.40
2022-07-26T15:39:18.419Z,54.80
2022-07-26T15:41:47.181Z,54.40
2022-07-26T15:44:17.203Z,54.30
2022-07-26T15:46:45.824Z,54.50
2022-07-26T15:49:15.653Z,54.10
2022-07-26T15:51:43.466Z,54.00
2022-07-26T15:54:12.158Z,54.40
2022-07-26T15:56:39.512Z,54.70
2022-07-26T15:59:09.190Z,54.40
2022-07-26T16:01:36.803Z,54.30
2022-07-26T16:04:05.239Z,54.60
2022-07-26T16:06:33.819Z,54.70
2022-07-26T16:09:20.030Z,54.80
2022-07-26T16:11:48.436Z,54.80
2022-07-26T16:14:16.248Z,56.00
2022-07-26T16:16:43.492Z,55.40
2022-07-26T16:19:11.046Z,55.00
2022-07-26T16:21:38.245Z,55.10
2022-07-26T16:24:07.386Z,55.50
2022-07-26T16:26:35.369Z,54.90
2022-07-26T16:29:03.653Z,54.30
2022-07-26T16:31:31.137Z,54.20
2022-07-26T16:33:57.968Z,54.20
2022-07-26T16:36:24.838Z,54.40
2022-07-26T16:38:51.834Z,54.40
2022-07-26T16:41:18.817Z,54.30
2022-07-26T16:43:45.584Z,54.20
2022-07-26T16:46:12.330Z,54.40
2022-07-26T16:48:39.144Z,54.00
2022-07-26T16:51:06.057Z,54.00
2022-07-26T16:53:32.752Z,54.30
2022-07-26T16:55:59.834Z,54.50
2022-07-26T16:58:26.630Z,54.60
2022-07-26T17:00:53.441Z,54.70
2022-07-26T17:03:20.376Z,54.80
2022-07-26T17:05:47.231Z,55.00
2022-07-26T17:08:13.962Z,55.00
2022-07-26T17:10:42.042Z,55.10
2022-07-26T17:13:09.046Z,55.30
2022-07-26T17:15:36.236Z,55.30
2022-07-26T17:18:04.174Z,55.40
2022-07-26T17:20:30.917Z,55.40
2022-07-26T17:22:57.625Z,55.70
2022-07-26T17:25:24.336Z,55.70
2022-07-26T17:27:51.261Z,55.90
2022-07-26T17:30:18.010Z,56.00
2022-07-26T17:32:44.872Z,55.90
2022-07-26T17:35:11.713Z,55.50
2022-07-26T17:37:38.486Z,55.30
2022-07-26T17:40:08.364Z,55.30
2022-07-26T17:42:36.495Z,55.30
2022-07-26T17:45:06.701Z,54.70
2022-07-26T17:47:33.419Z,54.60
2022-07-26T17:52:52.771Z,54.90
2022-07-26T17:55:20.480Z,54.60
2022-07-26T17:57:48.609Z,54.60
2022-07-26T18:00:19.298Z,54.70
2022-07-26T18:02:46.570Z,55.10
2022-07-26T18:05:13.925Z,55.00
2022-07-26T18:07:40.837Z,55.30
2022-07-26T18:10:08.037Z,55.70
2022-07-26T18:12:34.899Z,55.80
2022-07-26T18:15:01.577Z,55.90
2022-07-26T18:17:28.283Z,55.80
2022-07-26T18:19:55.175Z,56.00
2022-07-26T18:22:23.144Z,56.10
2022-07-26T18:24:49.877Z,56.20
2022-07-26T18:27:16.577Z,55.60
2022-07-26T18:29:43.324Z,55.50
2022-07-26T18:32:10.088Z,55.30
2022-07-26T18:34:36.834Z,55.20
2022-07-26T18:37:04.705Z,55.20
2022-07-26T18:39:33.176Z,55.20
2022-07-26T18:42:00.111Z,55.20
2022-07-26T18:44:26.826Z,55.20
2022-07-26T18:46:55.944Z,54.90
2022-07-26T18:49:23.124Z,55.10
2022-07-26T18:51:50.208Z,55.10
2022-07-26T18:54:19.597Z,55.10
2022-07-26T18:56:46.349Z,55.00
2022-07-26T18:59:13.462Z,54.90
2022-07-26T19:01:40.523Z,55.00
2022-07-26T19:04:07.730Z,55.30
2022-07-26T19:06:35.401Z,55.20
2022-07-26T19:09:02.229Z,55.20
2022-07-26T19:11:30.219Z,55.30
2022-07-26T19:13:57.063Z,55.40
2022-07-26T19:16:26.574Z,55.40
2022-07-26T19:18:57.301Z,55.40
2022-07-26T19:21:24.547Z,55.40
2022-07-26T19:23:51.236Z,55.50
2022-07-26T19:26:18.128Z,55.80
2022-07-26T19:28:44.961Z,55.80
2022-07-26T19:31:11.731Z,56.00
2022-07-26T19:33:38.528Z,56.00
2022-07-26T19:36:05.378Z,56.10
2022-07-26T19:38:33.004Z,56.10
2022-07-26T19:41:00.446Z,56.20
2022-07-26T19:43:27.717Z,56.20
2022-07-26T19:45:54.529Z,56.20
2022-07-26T19:48:21.415Z,56.20
2022-07-26T19:50:48.636Z,56.30
2022-07-26T19:53:15.395Z,56.30
2022-07-26T19:55:42.461Z,56.40
2022-07-26T19:58:09.450Z,56.50
2022-07-26T20:00:36.315Z,56.50
2022-07-26T20:03:03.139Z,56.50
2022-07-26T20:05:30.271Z,56.60
2022-07-26T20:07:57.066Z,56.70
2022-07-26T20:10:27.295Z,56.80
2022-07-26T20:12:56.783Z,57.00
2022-07-26T20:15:23.595Z,57.00
2022-07-26T20:17:50.274Z,57.10
2022-07-26T20:20:17.910Z,57.20
2022-07-26T20:22:44.732Z,57.30
2022-07-26T20:25:11.889Z,57.40
2022-07-26T20:27:38.700Z,57.50
2022-07-26T20:30:06.897Z,57.60
2022-07-26T20:32:33.624Z,57.60
2022-07-26T20:35:00.374Z,57.70
2022-07-26T20:37:27.166Z,57.80
2022-07-26T20:39:53.864Z,57.90
2022-07-26T20:42:22.167Z,57.90
2022-07-26T20:44:50.127Z,58.00
2022-07-26T20:47:16.803Z,58.10
2022-07-26T20:49:43.514Z,58.20
2022-07-26T20:52:10.415Z,58.30
2022-07-26T20:54:38.206Z,58.40
2022-07-26T20:57:04.960Z,58.50
2022-07-26T20:59:32.364Z,58.60
2022-07-26T21:01:59.305Z,58.60
2022-07-26T21:04:26.224Z,58.70
2022-07-26T21:06:53.168Z,58.80
2022-07-26T21:09:19.895Z,58.80
2022-07-26T21:11:46.806Z,59.00
2022-07-26T21:14:13.476Z,59.00
2022-07-26T21:16:40.246Z,59.10
2022-07-26T21:19:07.087Z,59.30
2022-07-26T21:21:34.682Z,59.40
2022-07-26T21:24:01.394Z,59.40
2022-07-26T21:26:28.156Z,59.40
2022-07-26T21:28:54.850Z,59.40
2022-07-26T21:31:21.661Z,59.50
2022-07-26T21:33:48.318Z,59.60
2022-07-26T21:36:14.997Z,59.70
2022-07-26T21:38:42.065Z,59.80
2022-07-26T21:41:08.803Z,59.90
2022-07-26T21:43:39.989Z,59.90
2022-07-26T21:46:12.217Z,60.00
2022-07-26T21:48:39.813Z,60.20
2022-07-26T21:51:06.604Z,60.30
2022-07-26T21:53:33.288Z,60.50
2022-07-26T21:56:00.042Z,60.50
2022-07-26T21:58:28.060Z,60.60
2022-07-26T22:01:03.288Z,60.70
2022-07-26T22:03:35.588Z,60.90
2022-07-26T22:06:02.455Z,61.00
2022-07-26T22:08:29.143Z,61.00
2022-07-26T22:10:55.841Z,61.40
2022-07-26T22:13:22.576Z,61.20
2022-07-26T22:15:49.373Z,61.40
2022-07-26T22:18:16.440Z,61.60
2022-07-26T22:20:44.125Z,61.60
2022-07-26T22:23:12.003Z,61.70
2022-07-26T22:25:40.043Z,61.70
2022-07-26T22:28:08.086Z,61.70
2022-07-26T22:30:35.307Z,61.80
2022-07-26T22:33:03.810Z,61.90
2022-07-26T22:35:32.263Z,61.90
2022-07-26T22:38:06.840Z,61.90
2022-07-26T22:40:34.013Z,61.90
2022-07-26T22:43:00.951Z,62.90
2022-07-26T22:45:28.892Z,62.00
2022-07-26T22:47:56.707Z,62.00
2022-07-26T22:50:24.926Z,62.10
2022-07-26T22:52:52.556Z,62.30
2022-07-26T22:55:20.121Z,62.20
2022-07-26T22:57:46.893Z,62.30
2022-07-26T23:00:16.341Z,62.40
2022-07-26T23:02:43.736Z,62.60
2022-07-26T23:05:11.348Z,62.60
2022-07-26T23:07:38.804Z,62.70
2022-07-26T23:10:08.909Z,62.70
2022-07-26T23:12:36.397Z,62.80
2022-07-26T23:15:04.813Z,62.80
2022-07-26T23:17:31.836Z,63.00
2022-07-26T23:19:58.637Z,63.10
2022-07-26T23:22:25.450Z,63.10
2022-07-26T23:24:52.131Z,63.10
2022-07-26T23:27:20.306Z,63.10
2022-07-26T23:29:48.345Z,63.20
2022-07-26T23:32:16.493Z,63.30
2022-07-26T23:34:43.361Z,63.20
2022-07-26T23:37:10.092Z,63.30
2022-07-26T23:39:37.073Z,63.40
2022-07-26T23:42:03.958Z,63.60
2022-07-26T23:44:31.097Z,63.90
2022-07-26T23:46:58.741Z,63.80
2022-07-26T23:49:26.116Z,63.90
2022-07-26T23:51:53.117Z,63.90
2022-07-26T23:54:19.957Z,63.90
2022-07-26T23:56:47.450Z,64.10
2022-07-26T23:59:14.739Z,64.20
